sensor_id;sensor_type;location;lat;lon;timestamp;temperature;humidity
1005;DHT22;491;53.480;10.174;2022-07-30T00:00:54;17.90;99.90
1005;DHT22;491;53.480;10.174;2022-07-30T00:03:20;17.90;99.90
1005;DHT22;491;53.480;10.174;2022-07-30T00:05:45;17.90;99.90
1005;DHT22;491;53.480;10.174;2022-07-30T00:08:11;17.90;99.90
1005;DHT22;491;53.480;10.174;2022-07-30T00:10:36;17.90;99.90
1005;DHT22;491;53.480;10.174;2022-07-30T00:13:03;17.80;99.90
1005;DHT22;491;53.480;10.174;2022-07-30T00:15:29;17.80;99.90
1005;DHT22;491;53.480;10.174;2022-07-30T00:17:54;17.90;99.90
1005;DHT22;491;53.480;10.174;2022-07-30T00:20:20;17.90;99.90
1005;DHT22;491;53.480;10.174;2022-07-30T00:22:46;17.90;99.90
1005;DHT22;491;53.480;10.174;2022-07-30T00:25:11;17.90;99.90
1005;DHT22;491;53.480;10.174;2022-07-30T00:27:37;17.90;99.90
1005;DHT22;491;53.480;10.174;2022-07-30T00:30:06;17.80;99.90
1005;DHT22;491;53.480;10.174;2022-07-30T00:32:31;17.80;99.90
1005;DHT22;491;53.480;10.174;2022-07-30T00:34:57;17.80;99.90
1005;DHT22;491;53.480;10.174;2022-07-30T00:37:22;17.80;99.90
1005;DHT22;491;53.480;10.174;2022-07-30T00:39:48;17.80;99.90
1005;DHT22;491;53.480;10.174;2022-07-30T00:42:14;17.60;99.90
1005;DHT22;491;53.480;10.174;2022-07-30T00:44:39;17.60;99.90
1005;DHT22;491;53.480;10.174;2022-07-30T00:47:05;17.50;99.90
1005;DHT22;491;53.480;10.174;2022-07-30T00:49:31;17.50;99.90
1005;DHT22;491;53.480;10.174;2022-07-30T00:51:57;17.40;99.90
1005;DHT22;491;53.480;10.174;2022-07-30T00:54:22;17.40;99.90
1005;DHT22;491;53.480;10.174;2022-07-30T00:56:51;17.40;99.90
1005;DHT22;491;53.480;10.174;2022-07-30T00:59:19;17.40;99.90
1005;DHT22;491;53.480;10.174;2022-07-30T01:01:45;17.40;99.90
1005;DHT22;491;53.480;10.174;2022-07-30T01:04:10;17.40;99.90
1005;DHT22;491;53.480;10.174;2022-07-30T01:06:37;17.40;99.90
1005;DHT22;491;53.480;10.174;2022-07-30T01:09:04;17.40;99.90
1005;DHT22;491;53.480;10.174;2022-07-30T01:11:35;17.40;99.90
1005;DHT22;491;53.480;10.174;2022-07-30T01:14:00;17.40;99.90
1005;DHT22;491;53.480;10.174;2022-07-30T01:16:26;17.30;99.90
1005;DHT22;491;53.480;10.174;2022-07-30T01:18:53;17.30;99.90
1005;DHT22;491;53.480;10.174;2022-07-30T01:21:40;17.30;99.90
1005;DHT22;491;53.480;10.174;2022-07-30T01:27:07;17.20;99.90
1005;DHT22;491;53.480;10.174;2022-07-30T01:29:34;17.20;99.90
1005;DHT22;491;53.480;10.174;2022-07-30T01:32:01;17.20;99.90
1005;DHT22;491;53.480;10.174;2022-07-30T01:34:30;17.10;99.90
1005;DHT22;491;53.480;10.174;2022-07-30T01:36:58;17.10;99.90
1005;DHT22;491;53.480;10.174;2022-07-30T01:39:25;17.00;99.90
1005;DHT22;491;53.480;10.174;2022-07-30T01:41:53;17.00;99.90
1005;DHT22;491;53.480;10.174;2022-07-30T01:44:21;16.90;99.90
1005;DHT22;491;53.480;10.174;2022-07-30T01:46:48;16.90;99.90
1005;DHT22;491;53.480;10.174;2022-07-30T01:49:14;16.80;99.90
1005;DHT22;491;53.480;10.174;2022-07-30T01:51:41;16.80;99.90
1005;DHT22;491;53.480;10.174;2022-07-30T01:54:09;16.80;99.90
1005;DHT22;491;53.480;10.174;2022-07-30T01:56:37;16.80;99.90
1005;DHT22;491;53.480;10.174;2022-07-30T01:59:04;16.70;99.90
1005;DHT22;491;53.480;10.174;2022-07-30T02:01:31;16.70;99.90
1005;DHT22;491;53.480;10.174;2022-07-30T02:03:59;16.60;99.90
1005;DHT22;491;53.480;10.174;2022-07-30T02:06:30;16.60;99.90
1005;DHT22;491;53.480;10.174;2022-07-30T02:09:00;16.60;99.90
1005;DHT22;491;53.480;10.174;2022-07-30T02:11:26;16.60;99.90
1005;DHT22;491;53.480;10.174;2022-07-30T02:14:49;16.60;99.90
1005;DHT22;491;53.480;10.174;2022-07-30T02:17:23;16.70;99.90
1005;DHT22;491;53.480;10.174;2022-07-30T02:19:53;16.70;99.90
1005;DHT22;491;53.480;10.174;2022-07-30T02:22:20;16.70;99.90
1005;DHT22;491;53.480;10.174;2022-07-30T02:24:48;16.80;99.90
1005;DHT22;491;53.480;10.174;2022-07-30T02:27:21;16.80;99.90
1005;DHT22;491;53.480;10.174;2022-07-30T02:29:49;16.80;99.90
1005;DHT22;491;53.480;10.174;2022-07-30T02:32:18;16.90;99.90
1005;DHT22;491;53.480;10.174;2022-07-30T02:34:48;16.90;99.90
1005;DHT22;491;53.480;10.174;2022-07-30T02:37:18;16.80;99.90
1005;DHT22;491;53.480;10.174;2022-07-30T02:39:48;16.90;99.90
1005;DHT22;491;53.480;10.174;2022-07-30T02:42:15;17.00;99.90
1005;DHT22;491;53.480;10.174;2022-07-30T02:44:43;17.00;99.90
1005;DHT22;491;53.480;10.174;2022-07-30T02:47:11;17.00;99.90
1005;DHT22;491;53.480;10.174;2022-07-30T02:49:38;17.00;99.90
1005;DHT22;491;53.480;10.174;2022-07-30T02:52:05;17.00;99.90
1005;DHT22;491;53.480;10.174;2022-07-30T02:54:36;17.00;99.90
1005;DHT22;491;53.480;10.174;2022-07-30T02:57:05;17.00;99.90
1005;DHT22;491;53.480;10.174;2022-07-30T02:59:32;17.00;99.90
1005;DHT22;491;53.480;10.174;2022-07-30T03:02:01;17.00;99.90
1005;DHT22;491;53.480;10.174;2022-07-30T03:04:27;17.00;99.90
1005;DHT22;491;53.480;10.174;2022-07-30T03:06:54;16.90;99.90
1005;DHT22;491;53.480;10.174;2022-07-30T03:09:20;17.00;99.90
1005;DHT22;491;53.480;10.174;2022-07-30T03:11:47;17.00;99.90
1005;DHT22;491;53.480;10.174;2022-07-30T03:14:13;17.00;99.90
1005;DHT22;491;53.480;10.174;2022-07-30T03:16:39;17.00;99.90
1005;DHT22;491;53.480;10.174;2022-07-30T03:19:10;17.00;99.90
1005;DHT22;491;53.480;10.174;2022-07-30T03:21:37;17.00;99.90
1005;DHT22;491;53.480;10.174;2022-07-30T03:24:05;17.00;99.90
1005;DHT22;491;53.480;10.174;2022-07-30T03:26:32;16.90;99.90
1005;DHT22;491;53.480;10.174;2022-07-30T03:28:59;16.90;99.90
1005;DHT22;491;53.480;10.174;2022-07-30T03:31:25;16.90;99.90
1005;DHT22;491;53.480;10.174;2022-07-30T03:33:52;16.90;99.90
1005;DHT22;491;53.480;10.174;2022-07-30T03:36:18;16.80;99.90
1005;DHT22;491;53.480;10.174;2022-07-30T03:38:44;16.80;99.90
1005;DHT22;491;53.480;10.174;2022-07-30T03:41:11;16.80;99.90
1005;DHT22;491;53.480;10.174;2022-07-30T03:43:38;16.80;99.90
1005;DHT22;491;53.480;10.174;2022-07-30T03:46:04;16.70;99.90
1005;DHT22;491;53.480;10.174;2022-07-30T03:48:32;16.70;99.90
1005;DHT22;491;53.480;10.174;2022-07-30T03:50:58;16.70;99.90
1005;DHT22;491;53.480;10.174;2022-07-30T03:53:25;16.70;99.90
1005;DHT22;491;53.480;10.174;2022-07-30T03:55:52;16.60;99.90
1005;DHT22;491;53.480;10.174;2022-07-30T03:58:18;16.60;99.90
1005;DHT22;491;53.480;10.174;2022-07-30T04:00:47;16.60;99.90
1005;DHT22;491;53.480;10.174;2022-07-30T04:03:22;16.60;99.90
1005;DHT22;491;53.480;10.174;2022-07-30T04:05:48;16.60;99.90
1005;DHT22;491;53.480;10.174;2022-07-30T04:08:13;16.60;99.90
1005;DHT22;491;53.480;10.174;2022-07-30T04:10:39;16.50;99.90
1005;DHT22;491;53.480;10.174;2022-07-30T04:13:04;16.60;99.90
1005;DHT22;491;53.480;10.174;2022-07-30T04:15:36;16.60;99.90
1005;DHT22;491;53.480;10.174;2022-07-30T04:18:05;16.60;99.90
1005;DHT22;491;53.480;10.174;2022-07-30T04:20:35;16.60;99.90
1005;DHT22;491;53.480;10.174;2022-07-30T04:23:04;16.60;99.90
1005;DHT22;491;53.480;10.174;2022-07-30T04:25:30;16.60;99.90
1005;DHT22;491;53.480;10.174;2022-07-30T04:27:57;16.60;99.90
1005;DHT22;491;53.480;10.174;2022-07-30T04:30:22;16.60;99.90
1005;DHT22;491;53.480;10.174;2022-07-30T04:32:48;16.70;99.90
1005;DHT22;491;53.480;10.174;2022-07-30T04:35:13;16.70;99.90
1005;DHT22;491;53.480;10.174;2022-07-30T04:37:40;16.80;99.90
1005;DHT22;491;53.480;10.174;2022-07-30T04:40:06;16.80;99.90
1005;DHT22;491;53.480;10.174;2022-07-30T04:42:32;16.80;99.90
1005;DHT22;491;53.480;10.174;2022-07-30T04:44:58;16.80;99.90
1005;DHT22;491;53.480;10.174;2022-07-30T04:47:24;16.80;99.90
1005;DHT22;491;53.480;10.174;2022-07-30T04:49:51;16.90;99.90
1005;DHT22;491;53.480;10.174;2022-07-30T04:52:17;16.90;99.90
1005;DHT22;491;53.480;10.174;2022-07-30T04:54:47;16.90;99.90
1005;DHT22;491;53.480;10.174;2022-07-30T04:57:14;17.00;99.90
1005;DHT22;491;53.480;10.174;2022-07-30T04:59:41;17.00;99.90
1005;DHT22;491;53.480;10.174;2022-07-30T05:02:07;17.10;99.90
1005;DHT22;491;53.480;10.174;2022-07-30T05:04:34;17.10;99.90
1005;DHT22;491;53.480;10.174;2022-07-30T05:07:01;17.20;99.90
1005;DHT22;491;53.480;10.174;2022-07-30T05:09:28;17.20;99.90
1005;DHT22;491;53.480;10.174;2022-07-30T05:11:56;17.20;99.90
1005;DHT22;491;53.480;10.174;2022-07-30T05:14:22;17.20;99.90
1005;DHT22;491;53.480;10.174;2022-07-30T05:16:49;17.30;99.90
1005;DHT22;491;53.480;10.174;2022-07-30T05:19:16;17.40;99.90
1005;DHT22;491;53.480;10.174;2022-07-30T05:21:42;17.50;99.90
1005;DHT22;491;53.480;10.174;2022-07-30T05:24:07;17.60;99.90
1005;DHT22;491;53.480;10.174;2022-07-30T05:26:33;17.70;99.90
1005;DHT22;491;53.480;10.174;2022-07-30T05:28:58;17.80;99.90
1005;DHT22;491;53.480;10.174;2022-07-30T05:31:24;17.90;99.90
1005;DHT22;491;53.480;10.174;2022-07-30T05:33:50;18.00;99.90
1005;DHT22;491;53.480;10.174;2022-07-30T05:36:15;18.10;99.90
1005;DHT22;491;53.480;10.174;2022-07-30T05:38:41;18.20;99.90
1005;DHT22;491;53.480;10.174;2022-07-30T05:41:06;18.30;99.90
1005;DHT22;491;53.480;10.174;2022-07-30T05:43:32;18.40;99.90
1005;DHT22;491;53.480;10.174;2022-07-30T05:45:57;18.40;99.90
1005;DHT22;491;53.480;10.174;2022-07-30T05:48:23;18.50;99.90
1005;DHT22;491;53.480;10.174;2022-07-30T05:50:48;18.60;99.90
1005;DHT22;491;53.480;10.174;2022-07-30T05:53:14;18.70;99.90
1005;DHT22;491;53.480;10.174;2022-07-30T05:55:39;18.80;99.90
1005;DHT22;491;53.480;10.174;2022-07-30T05:58:05;18.90;99.90
1005;DHT22;491;53.480;10.174;2022-07-30T06:00:30;19.00;99.90
1005;DHT22;491;53.480;10.174;2022-07-30T06:02:56;19.00;99.90
1005;DHT22;491;53.480;10.174;2022-07-30T06:05:21;19.10;99.90
1005;DHT22;491;53.480;10.174;2022-07-30T06:07:47;19.10;99.90
1005;DHT22;491;53.480;10.174;2022-07-30T06:10:12;19.10;33.50
1005;DHT22;491;53.480;10.174;2022-07-30T06:12:38;19.30;9.20
1005;DHT22;491;53.480;10.174;2022-07-30T06:15:04;19.50;1.00
1005;DHT22;491;53.480;10.174;2022-07-30T06:17:29;19.80;1.00
1005;DHT22;491;53.480;10.174;2022-07-30T06:19:58;20.40;1.00
1005;DHT22;491;53.480;10.174;2022-07-30T06:22:24;20.90;99.90
1005;DHT22;491;53.480;10.174;2022-07-30T06:24:49;21.50;1.00
1005;DHT22;491;53.480;10.174;2022-07-30T06:27:15;21.70;1.00
1005;DHT22;491;53.480;10.174;2022-07-30T06:29:40;22.10;1.00
1005;DHT22;491;53.480;10.174;2022-07-30T06:32:06;22.50;99.90
1005;DHT22;491;53.480;10.174;2022-07-30T06:34:31;22.90;99.90
1005;DHT22;491;53.480;10.174;2022-07-30T06:36:57;23.20;99.90
1005;DHT22;491;53.480;10.174;2022-07-30T06:39:23;23.80;1.00
1005;DHT22;491;53.480;10.174;2022-07-30T06:41:48;24.60;99.90
1005;DHT22;491;53.480;10.174;2022-07-30T06:44:13;25.40;99.90
1005;DHT22;491;53.480;10.174;2022-07-30T06:46:39;26.10;99.90
1005;DHT22;491;53.480;10.174;2022-07-30T06:49:05;26.50;99.90
1005;DHT22;491;53.480;10.174;2022-07-30T06:51:30;26.50;99.90
1005;DHT22;491;53.480;10.174;2022-07-30T06:53:56;25.90;99.90
1005;DHT22;491;53.480;10.174;2022-07-30T06:56:21;24.10;99.90
1005;DHT22;491;53.480;10.174;2022-07-30T06:58:47;23.40;99.90
1005;DHT22;491;53.480;10.174;2022-07-30T07:01:12;24.20;99.90
1005;DHT22;491;53.480;10.174;2022-07-30T07:03:38;24.80;99.90
1005;DHT22;491;53.480;10.174;2022-07-30T07:06:04;26.20;99.90
1005;DHT22;491;53.480;10.174;2022-07-30T07:08:29;27.20;99.80
1005;DHT22;491;53.480;10.174;2022-07-30T07:10:56;26.60;47.10
1005;DHT22;491;53.480;10.174;2022-07-30T07:13:21;26.10;51.10
1005;DHT22;491;53.480;10.174;2022-07-30T07:15:47;26.50;67.00
1005;DHT22;491;53.480;10.174;2022-07-30T07:18:12;26.70;51.80
1005;DHT22;491;53.480;10.174;2022-07-30T07:20:39;26.80;76.10
1005;DHT22;491;53.480;10.174;2022-07-30T07:23:05;27.70;39.40
1005;DHT22;491;53.480;10.174;2022-07-30T07:27:56;28.60;1.00
1005;DHT22;491;53.480;10.174;2022-07-30T07:30:22;28.80;2.20
1005;DHT22;491;53.480;10.174;2022-07-30T07:32:47;29.00;2.70
1005;DHT22;491;53.480;10.174;2022-07-30T07:35:13;28.80;1.90
1005;DHT22;491;53.480;10.174;2022-07-30T07:37:38;29.50;1.00
1005;DHT22;491;53.480;10.174;2022-07-30T07:40:04;29.70;1.00
1005;DHT22;491;53.480;10.174;2022-07-30T07:42:30;30.10;1.00
1005;DHT22;491;53.480;10.174;2022-07-30T07:44:56;27.40;1.00
1005;DHT22;491;53.480;10.174;2022-07-30T07:47:21;25.70;1.00
1005;DHT22;491;53.480;10.174;2022-07-30T07:49:46;25.60;9.40
1005;DHT22;491;53.480;10.174;2022-07-30T07:52:12;25.50;18.50
1005;DHT22;491;53.480;10.174;2022-07-30T07:54:38;25.50;19.40
1005;DHT22;491;53.480;10.174;2022-07-30T07:57:03;25.60;24.30
1005;DHT22;491;53.480;10.174;2022-07-30T07:59:32;25.40;29.70
1005;DHT22;491;53.480;10.174;2022-07-30T08:01:58;25.70;17.50
1005;DHT22;491;53.480;10.174;2022-07-30T08:04:23;26.20;12.60
1005;DHT22;491;53.480;10.174;2022-07-30T08:06:49;26.40;20.60
1005;DHT22;491;53.480;10.174;2022-07-30T08:09:15;26.70;11.20
1005;DHT22;491;53.480;10.174;2022-07-30T08:11:40;27.30;1.00
1005;DHT22;491;53.480;10.174;2022-07-30T08:14:05;28.40;1.00
1005;DHT22;491;53.480;10.174;2022-07-30T08:16:31;29.10;1.00
1005;DHT22;491;53.480;10.174;2022-07-30T08:18:56;29.30;1.00
1005;DHT22;491;53.480;10.174;2022-07-30T08:21:22;29.00;1.00
1005;DHT22;491;53.480;10.174;2022-07-30T08:23:47;29.40;1.00
1005;DHT22;491;53.480;10.174;2022-07-30T08:26:13;30.00;1.00
1005;DHT22;491;53.480;10.174;2022-07-30T08:28:38;28.40;1.00
1005;DHT22;491;53.480;10.174;2022-07-30T08:31:04;28.20;1.00
1005;DHT22;491;53.480;10.174;2022-07-30T08:33:29;30.30;1.00
1005;DHT22;491;53.480;10.174;2022-07-30T08:35:55;30.50;1.00
1005;DHT22;491;53.480;10.174;2022-07-30T08:38:20;29.70;1.00
1005;DHT22;491;53.480;10.174;2022-07-30T08:40:46;28.10;1.00
1005;DHT22;491;53.480;10.174;2022-07-30T08:43:11;27.10;1.00
1005;DHT22;491;53.480;10.174;2022-07-30T08:45:37;27.00;4.90
1005;DHT22;491;53.480;10.174;2022-07-30T08:48:09;28.10;1.00
1005;DHT22;491;53.480;10.174;2022-07-30T08:50:35;30.00;1.00
1005;DHT22;491;53.480;10.174;2022-07-30T08:53:01;30.80;1.00
1005;DHT22;491;53.480;10.174;2022-07-30T08:55:27;31.10;1.00
1005;DHT22;491;53.480;10.174;2022-07-30T08:57:53;31.00;1.00
1005;DHT22;491;53.480;10.174;2022-07-30T09:00:18;30.90;1.00
1005;DHT22;491;53.480;10.174;2022-07-30T09:02:44;31.20;1.00
1005;DHT22;491;53.480;10.174;2022-07-30T09:05:11;31.00;1.00
1005;DHT22;491;53.480;10.174;2022-07-30T09:07:37;30.80;1.00
1005;DHT22;491;53.480;10.174;2022-07-30T09:10:04;31.20;1.00
1005;DHT22;491;53.480;10.174;2022-07-30T09:12:34;30.20;1.00
1005;DHT22;491;53.480;10.174;2022-07-30T09:15:21;29.60;1.00
1005;DHT22;491;53.480;10.174;2022-07-30T09:17:56;29.90;1.00
1005;DHT22;491;53.480;10.174;2022-07-30T09:20:24;29.10;1.00
1005;DHT22;491;53.480;10.174;2022-07-30T09:22:58;27.50;1.00
1005;DHT22;491;53.480;10.174;2022-07-30T09:25:33;27.80;1.00
1005;DHT22;491;53.480;10.174;2022-07-30T09:28:00;27.40;1.00
1005;DHT22;491;53.480;10.174;2022-07-30T09:30:26;26.60;1.00
1005;DHT22;491;53.480;10.174;2022-07-30T09:32:54;25.80;1.00
1005;DHT22;491;53.480;10.174;2022-07-30T09:35:21;25.50;1.00
1005;DHT22;491;53.480;10.174;2022-07-30T09:38:00;25.50;1.00
1005;DHT22;491;53.480;10.174;2022-07-30T09:40:26;25.40;1.70
1005;DHT22;491;53.480;10.174;2022-07-30T09:43:02;25.50;4.00
1005;DHT22;491;53.480;10.174;2022-07-30T09:45:28;25.50;11.40
1005;DHT22;491;53.480;10.174;2022-07-30T09:47:54;25.20;1.00
1005;DHT22;491;53.480;10.174;2022-07-30T09:50:19;25.40;2.10
1005;DHT22;491;53.480;10.174;2022-07-30T09:52:46;25.50;1.00
1005;DHT22;491;53.480;10.174;2022-07-30T09:55:14;26.10;1.00
1005;DHT22;491;53.480;10.174;2022-07-30T09:57:54;28.10;1.00
1005;DHT22;491;53.480;10.174;2022-07-30T10:00:23;28.70;1.00
1005;DHT22;491;53.480;10.174;2022-07-30T10:02:49;27.80;1.00
1005;DHT22;491;53.480;10.174;2022-07-30T10:05:17;26.20;1.00
1005;DHT22;491;53.480;10.174;2022-07-30T10:07:55;25.20;1.00
1005;DHT22;491;53.480;10.174;2022-07-30T10:10:29;24.40;3.70
1005;DHT22;491;53.480;10.174;2022-07-30T10:12:59;24.30;72.30
1005;DHT22;491;53.480;10.174;2022-07-30T10:15:28;24.00;99.90
1005;DHT22;491;53.480;10.174;2022-07-30T10:17:55;23.80;99.90
1005;DHT22;491;53.480;10.174;2022-07-30T10:20:20;23.70;99.90
1005;DHT22;491;53.480;10.174;2022-07-30T10:22:47;23.60;99.90
1005;DHT22;491;53.480;10.174;2022-07-30T10:25:16;23.30;99.90
1005;DHT22;491;53.480;10.174;2022-07-30T10:27:41;23.20;99.90
1005;DHT22;491;53.480;10.174;2022-07-30T10:30:07;23.00;99.90
1005;DHT22;491;53.480;10.174;2022-07-30T10:32:33;22.70;99.90
1005;DHT22;491;53.480;10.174;2022-07-30T10:34:59;22.50;99.90
1005;DHT22;491;53.480;10.174;2022-07-30T10:37:26;22.20;90.70
1005;DHT22;491;53.480;10.174;2022-07-30T10:39:56;22.00;99.90
1005;DHT22;491;53.480;10.174;2022-07-30T10:42:48;22.00;99.90
1005;DHT22;491;53.480;10.174;2022-07-30T10:47:56;21.90;99.90
1005;DHT22;491;53.480;10.174;2022-07-30T10:50:23;22.00;99.90
1005;DHT22;491;53.480;10.174;2022-07-30T10:52:54;22.00;99.90
1005;DHT22;491;53.480;10.174;2022-07-30T10:55:25;22.00;99.90
1005;DHT22;491;53.480;10.174;2022-07-30T10:58:11;22.10;99.90
1005;DHT22;491;53.480;10.174;2022-07-30T11:03:25;22.20;99.90
1005;DHT22;491;53.480;10.174;2022-07-30T11:06:23;22.20;99.90
1005;DHT22;491;53.480;10.174;2022-07-30T11:08:39;22.30;99.90
1005;DHT22;491;53.480;10.174;2022-07-30T11:14:00;22.50;99.90
1005;DHT22;491;53.480;10.174;2022-07-30T11:19:12;22.80;99.90
1005;DHT22;491;53.480;10.174;2022-07-30T11:21:42;22.60;78.50
1005;DHT22;491;53.480;10.174;2022-07-30T11:24:40;22.40;99.90
1005;DHT22;491;53.480;10.174;2022-07-30T11:27:06;22.40;99.90
1005;DHT22;491;53.480;10.174;2022-07-30T11:29:36;22.60;99.90
1005;DHT22;491;53.480;10.174;2022-07-30T11:34:51;22.90;99.90
1005;DHT22;491;53.480;10.174;2022-07-30T11:37:17;22.90;1.00
1005;DHT22;491;53.480;10.174;2022-07-30T11:42:28;24.10;1.00
1005;DHT22;491;53.480;10.174;2022-07-30T11:47:50;26.70;1.00
1005;DHT22;491;53.480;10.174;2022-07-30T11:50:31;27.00;1.00
1005;DHT22;491;53.480;10.174;2022-07-30T11:53:00;27.70;99.90
1005;DHT22;491;53.480;10.174;2022-07-30T11:55:29;28.50;1.00
1005;DHT22;491;53.480;10.174;2022-07-30T11:57:56;28.80;99.90
1005;DHT22;491;53.480;10.174;2022-07-30T12:00:22;29.10;99.90
1005;DHT22;491;53.480;10.174;2022-07-30T12:02:49;28.40;99.90
1005;DHT22;491;53.480;10.174;2022-07-30T12:05:21;28.00;99.90
1005;DHT22;491;53.480;10.174;2022-07-30T12:07:47;27.60;99.90
1005;DHT22;491;53.480;10.174;2022-07-30T12:10:18;27.30;99.90
1005;DHT22;491;53.480;10.174;2022-07-30T12:12:44;27.30;99.90
1005;DHT22;491;53.480;10.174;2022-07-30T12:15:10;27.50;99.90
1005;DHT22;491;53.480;10.174;2022-07-30T12:17:51;28.10;99.90
1005;DHT22;491;53.480;10.174;2022-07-30T12:20:18;28.90;99.90
1005;DHT22;491;53.480;10.174;2022-07-30T12:22:44;29.00;99.90
1005;DHT22;491;53.480;10.174;2022-07-30T12:25:11;28.60;99.90
1005;DHT22;491;53.480;10.174;2022-07-30T12:27:37;28.40;99.90
1005;DHT22;491;53.480;10.174;2022-07-30T12:30:04;28.30;99.90
1005;DHT22;491;53.480;10.174;2022-07-30T12:32:30;28.30;99.90
1005;DHT22;491;53.480;10.174;2022-07-30T12:34:56;28.00;99.90
1005;DHT22;491;53.480;10.174;2022-07-30T12:37:23;28.70;99.90
1005;DHT22;491;53.480;10.174;2022-07-30T12:39:49;29.00;99.90
1005;DHT22;491;53.480;10.174;2022-07-30T12:42:28;29.20;99.90
1005;DHT22;491;53.480;10.174;2022-07-30T12:44:53;29.20;99.90
1005;DHT22;491;53.480;10.174;2022-07-30T12:47:28;28.50;99.90
1005;DHT22;491;53.480;10.174;2022-07-30T12:49:58;27.80;99.90
1005;DHT22;491;53.480;10.174;2022-07-30T12:52:25;27.70;99.90
1005;DHT22;491;53.480;10.174;2022-07-30T12:55:11;27.90;99.90
1005;DHT22;491;53.480;10.174;2022-07-30T12:57:59;27.80;80.30
1005;DHT22;491;53.480;10.174;2022-07-30T13:02:53;29.50;68.30
1005;DHT22;491;53.480;10.174;2022-07-30T13:05:19;29.60;42.20
1005;DHT22;491;53.480;10.174;2022-07-30T13:07:58;29.60;58.40
1005;DHT22;491;53.480;10.174;2022-07-30T13:10:25;29.80;42.70
1005;DHT22;491;53.480;10.174;2022-07-30T13:12:51;30.20;36.20
1005;DHT22;491;53.480;10.174;2022-07-30T13:15:20;30.20;28.80
1005;DHT22;491;53.480;10.174;2022-07-30T13:17:47;30.30;23.50
1005;DHT22;491;53.480;10.174;2022-07-30T13:20:14;30.40;10.60
1005;DHT22;491;53.480;10.174;2022-07-30T13:22:40;30.10;3.70
1005;DHT22;491;53.480;10.174;2022-07-30T13:25:06;29.70;6.80
1005;DHT22;491;53.480;10.174;2022-07-30T13:27:32;30.10;1.00
1005;DHT22;491;53.480;10.174;2022-07-30T13:29:57;30.00;1.00
1005;DHT22;491;53.480;10.174;2022-07-30T13:32:23;30.00;1.00
1005;DHT22;491;53.480;10.174;2022-07-30T13:34:48;29.90;1.00
1005;DHT22;491;53.480;10.174;2022-07-30T13:37:13;29.70;1.00
1005;DHT22;491;53.480;10.174;2022-07-30T13:39:39;29.80;1.00
1005;DHT22;491;53.480;10.174;2022-07-30T13:42:04;29.80;1.00
1005;DHT22;491;53.480;10.174;2022-07-30T13:44:30;29.50;1.00
1005;DHT22;491;53.480;10.174;2022-07-30T13:46:56;28.90;1.00
1005;DHT22;491;53.480;10.174;2022-07-30T13:49:21;28.80;1.00
1005;DHT22;491;53.480;10.174;2022-07-30T13:51:47;29.10;1.00
1005;DHT22;491;53.480;10.174;2022-07-30T13:54:12;29.30;1.00
1005;DHT22;491;53.480;10.174;2022-07-30T13:56:37;29.10;1.00
1005;DHT22;491;53.480;10.174;2022-07-30T13:59:04;28.40;1.00
1005;DHT22;491;53.480;10.174;2022-07-30T14:01:30;28.60;1.00
1005;DHT22;491;53.480;10.174;2022-07-30T14:03:56;28.40;1.00
1005;DHT22;491;53.480;10.174;2022-07-30T14:06:21;28.60;1.00
1005;DHT22;491;53.480;10.174;2022-07-30T14:08:47;29.00;1.00
1005;DHT22;491;53.480;10.174;2022-07-30T14:11:13;28.90;1.00
1005;DHT22;491;53.480;10.174;2022-07-30T14:13:38;28.80;1.00
1005;DHT22;491;53.480;10.174;2022-07-30T14:16:04;28.40;1.00
1005;DHT22;491;53.480;10.174;2022-07-30T14:18:30;28.60;1.00
1005;DHT22;491;53.480;10.174;2022-07-30T14:20:56;28.50;1.00
1005;DHT22;491;53.480;10.174;2022-07-30T14:23:24;28.50;1.00
1005;DHT22;491;53.480;10.174;2022-07-30T14:25:50;28.40;1.00
1005;DHT22;491;53.480;10.174;2022-07-30T14:28:16;28.00;1.00
1005;DHT22;491;53.480;10.174;2022-07-30T14:30:42;28.10;1.00
1005;DHT22;491;53.480;10.174;2022-07-30T14:33:07;28.30;1.00
1005;DHT22;491;53.480;10.174;2022-07-30T14:35:33;28.30;1.00
1005;DHT22;491;53.480;10.174;2022-07-30T14:37:58;28.20;1.00
1005;DHT22;491;53.480;10.174;2022-07-30T14:40:24;28.20;1.00
1005;DHT22;491;53.480;10.174;2022-07-30T14:42:49;28.10;1.00
1005;DHT22;491;53.480;10.174;2022-07-30T14:45:15;27.90;1.00
1005;DHT22;491;53.480;10.174;2022-07-30T14:47:41;28.00;1.00
1005;DHT22;491;53.480;10.174;2022-07-30T14:50:06;27.90;1.00
1005;DHT22;491;53.480;10.174;2022-07-30T14:52:34;27.50;1.00
1005;DHT22;491;53.480;10.174;2022-07-30T14:55:01;27.30;1.00
1005;DHT22;491;53.480;10.174;2022-07-30T14:57:27;27.60;1.00
1005;DHT22;491;53.480;10.174;2022-07-30T14:59:52;27.70;1.00
1005;DHT22;491;53.480;10.174;2022-07-30T15:02:18;27.80;1.00
1005;DHT22;491;53.480;10.174;2022-07-30T15:04:44;27.90;1.00
1005;DHT22;491;53.480;10.174;2022-07-30T15:07:11;27.80;1.00
1005;DHT22;491;53.480;10.174;2022-07-30T15:09:37;27.90;1.00
1005;DHT22;491;53.480;10.174;2022-07-30T15:12:02;27.60;1.00
1005;DHT22;491;53.480;10.174;2022-07-30T15:14:28;27.60;1.00
1005;DHT22;491;53.480;10.174;2022-07-30T15:16:54;27.60;1.00
1005;DHT22;491;53.480;10.174;2022-07-30T15:19:19;27.50;1.00
1005;DHT22;491;53.480;10.174;2022-07-30T15:21:45;27.50;1.00
1005;DHT22;491;53.480;10.174;2022-07-30T15:24:10;27.60;1.00
1005;DHT22;491;53.480;10.174;2022-07-30T15:26:35;27.60;1.00
1005;DHT22;491;53.480;10.174;2022-07-30T15:29:01;27.40;1.00
1005;DHT22;491;53.480;10.174;2022-07-30T15:31:27;27.10;1.00
1005;DHT22;491;53.480;10.174;2022-07-30T15:33:53;27.20;1.00
1005;DHT22;491;53.480;10.174;2022-07-30T15:36:18;27.20;1.00
1005;DHT22;491;53.480;10.174;2022-07-30T15:38:44;27.30;1.00
1005;DHT22;491;53.480;10.174;2022-07-30T15:41:09;27.20;1.00
1005;DHT22;491;53.480;10.174;2022-07-30T15:43:35;27.10;1.00
1005;DHT22;491;53.480;10.174;2022-07-30T15:46:01;27.10;1.00
1005;DHT22;491;53.480;10.174;2022-07-30T15:48:26;26.90;1.00
1005;DHT22;491;53.480;10.174;2022-07-30T15:50:56;26.70;1.00
1005;DHT22;491;53.480;10.174;2022-07-30T15:53:24;26.60;1.00
1005;DHT22;491;53.480;10.174;2022-07-30T15:55:49;26.50;1.00
1005;DHT22;491;53.480;10.174;2022-07-30T15:58:15;26.20;1.00
1005;DHT22;491;53.480;10.174;2022-07-30T16:00:42;26.10;1.00
1005;DHT22;491;53.480;10.174;2022-07-30T16:03:07;26.10;1.00
1005;DHT22;491;53.480;10.174;2022-07-30T16:05:32;26.00;1.00
1005;DHT22;491;53.480;10.174;2022-07-30T16:07:58;25.70;1.00
1005;DHT22;491;53.480;10.174;2022-07-30T16:10:24;25.40;1.00
1005;DHT22;491;53.480;10.174;2022-07-30T16:12:49;25.30;1.00
1005;DHT22;491;53.480;10.174;2022-07-30T16:15:15;25.30;4.00
1005;DHT22;491;53.480;10.174;2022-07-30T16:17:40;25.50;7.40
1005;DHT22;491;53.480;10.174;2022-07-30T16:20:07;25.70;1.60
1005;DHT22;491;53.480;10.174;2022-07-30T16:22:33;25.70;2.50
1005;DHT22;491;53.480;10.174;2022-07-30T16:24:59;25.70;1.90
1005;DHT22;491;53.480;10.174;2022-07-30T16:27:24;25.70;4.80
1005;DHT22;491;53.480;10.174;2022-07-30T16:29:50;25.80;7.90
1005;DHT22;491;53.480;10.174;2022-07-30T16:32:15;25.70;9.00
1005;DHT22;491;53.480;10.174;2022-07-30T16:34:41;25.70;8.50